Impacts TAF Board INFO
FOR SITUATIONAL AWARENESS. NOT TO BE USED FOR FLIGHT PLANNING PURPOSES.
IDs:

KBWI - Baltimore-Washington, MD, US

Issued at 2320 UTC 24 Jun 2017
Updated at 0159 UTC 25 Jun 2017
Potential Impact None Slight Moderate High
Time0154Z 25/02Z 25/03Z 25/04Z 25/05Z 25/06Z 25/07Z 25/08Z 25/09Z 25/10Z 25/11Z 25/12Z 25/13Z 25/14Z>>
Type OBS PRVL PRVL PRVL PRVL PRVL PRVL PRVL PRVL PRVL PRVL PRVL PRVL PRVL
VIS 10 >6 >6 >6 >6 >6 >6 >6 >6 >6 >6 >6 >6 >6
CIG 250 -- -- -- -- -- -- -- -- -- -- -- -- --
Cover BKN SCT SCT SCT SCT SCT SCT SCT SCT SCT SCT SCT SCT SCT
FltCat VFR VFR VFR VFR VFR VFR VFR VFR VFR VFR VFR VFR VFR VFR
WX -- -- -- -- -- -- -- -- -- -- -- -- -- --
WDir VRB 280 330 330 330 330 330 330 VRB VRB VRB VRB VRB 290
WSpd 0 7 5 5 5 5 5 5 3 3 3 3 3 10
WGst -- -- -- -- -- -- -- -- -- -- -- -- -- 18

Raw TAF
KBWI 242320Z 2500/2606 28007KT P6SM SCT050 SCT200
  FM250300 33005KT P6SM SCT050 SCT200
  FM250900 VRB03KT P6SM FEW050 SCT200
  FM251400 29010G18KT P6SM SCT060
  FM252300 29008KT P6SM FEW250


Raw METAR
KBWI 250154Z 00000KT 10SM FEW050 BKN250 23/17 A2994 RMK AO2 SLP137 T02280167
KBWI 250054Z 22003KT 10SM FEW055 FEW150 SCT250 24/16 A2991 RMK AO2 SLP128 T02440161
KBWI 242354Z 26006KT 10SM FEW065 FEW150 SCT250 27/15 A2990 RMK AO2 SLP122 T02670150 10306 20267 53006
KBWI 242254Z 28013KT 10SM FEW065 FEW160 SCT250 28/14 A2988 RMK AO2 SLP118 T02830144

METAR Board
Radar Display
Forecast Discussion

FOR SITUATIONAL AWARENESS. NOT TO BE USED FOR FLIGHT PLANNING PURPOSES.

Page loaded:  01:59 UTC  |   06:59 PM Pacific  |   07:59 PM Mountain  |   08:59 PM Central  |   09:59 PM Eastern

 

ADVISORIES

FORECASTS

FORECASTS

OBSERVATIONS

USER TOOLS

ABOUT US